createdAt,value
2022-09-22T00:01:11.639Z,1.58
2022-09-22T00:03:43.437Z,1.75
2022-09-22T00:06:17.627Z,2.13
2022-09-22T00:08:48.902Z,1.35
2022-09-22T00:11:18.625Z,1.42
2022-09-22T00:13:51.283Z,1.48
2022-09-22T00:16:23.871Z,1.30
2022-09-22T00:18:50.783Z,1.65
2022-09-22T00:21:19.354Z,1.70
2022-09-22T00:23:49.344Z,1.23
2022-09-22T00:26:21.628Z,1.80
2022-09-22T00:28:49.668Z,1.40
2022-09-22T00:31:24.661Z,1.45
2022-09-22T00:33:53.204Z,1.50
2022-09-22T00:36:22.209Z,1.40
2022-09-22T00:38:52.061Z,1.50
2022-09-22T00:41:23.781Z,1.38
2022-09-22T00:44:12.318Z,1.90
2022-09-22T00:46:41.715Z,1.80
2022-09-22T00:49:09.398Z,1.80
2022-09-22T00:51:39.822Z,1.25
2022-09-22T00:54:11.891Z,1.30
2022-09-22T00:56:55.978Z,0.90
2022-09-22T00:59:25.442Z,0.93
2022-09-22T01:01:52.760Z,0.90
2022-09-22T01:04:19.516Z,1.50
2022-09-22T01:06:46.420Z,1.40
2022-09-22T01:09:13.833Z,1.50
2022-09-22T01:11:41.471Z,1.50
2022-09-22T01:14:28.327Z,1.50
2022-09-22T01:17:08.671Z,1.52
2022-09-22T01:19:43.915Z,1.30
2022-09-22T01:22:48.947Z,1.25
2022-09-22T01:27:58.827Z,1.25
2022-09-22T01:30:36.624Z,1.20
2022-09-22T01:33:19.939Z,1.02
2022-09-22T01:36:02.665Z,1.00
2022-09-22T01:38:36.300Z,0.70
2022-09-22T01:41:33.937Z,1.13
2022-09-22T01:44:07.505Z,1.17
2022-09-22T01:46:42.934Z,1.10
2022-09-22T01:49:14.839Z,1.13
2022-09-22T01:51:47.726Z,1.20
2022-09-22T01:54:24.824Z,1.52
2022-09-22T01:56:58.422Z,1.38
2022-09-22T01:59:30.191Z,1.60
2022-09-22T02:02:02.326Z,1.60
2022-09-22T02:04:41.126Z,1.60
2022-09-22T02:07:15.572Z,1.23
2022-09-22T02:09:42.556Z,1.65
2022-09-22T02:12:09.155Z,1.55
2022-09-22T02:14:35.909Z,1.30
2022-09-22T02:17:02.571Z,0.88
2022-09-22T02:19:39.869Z,1.13
2022-09-22T02:22:08.123Z,1.27
2022-09-22T02:24:37.502Z,1.05
2022-09-22T02:27:18.604Z,1.10
2022-09-22T02:30:12.628Z,1.65
2022-09-22T02:32:42.664Z,1.52
2022-09-22T02:35:09.926Z,1.65
2022-09-22T02:37:41.970Z,1.40
2022-09-22T02:40:27.553Z,1.50
2022-09-22T02:43:03.127Z,1.20
2022-09-22T02:45:37.965Z,1.38
2022-09-22T02:48:19.709Z,1.20
2022-09-22T02:50:46.136Z,1.13
2022-09-22T02:53:15.671Z,1.23
2022-09-22T02:55:43.691Z,1.50
2022-09-22T02:58:11.013Z,1.30
2022-09-22T03:00:42.131Z,1.20
2022-09-22T03:03:10.611Z,1.30
2022-09-22T03:05:38.184Z,1.13
2022-09-22T03:08:05.067Z,0.90
2022-09-22T03:10:31.633Z,1.60
2022-09-22T03:13:15.468Z,1.40
2022-09-22T03:15:44.022Z,1.48
2022-09-22T03:18:10.508Z,1.50
2022-09-22T03:20:37.084Z,1.38
2022-09-22T03:23:03.579Z,1.52
2022-09-22T03:25:30.060Z,1.50
2022-09-22T03:27:56.593Z,1.73
2022-09-22T03:30:23.127Z,1.70
2022-09-22T03:32:49.676Z,2.38
2022-09-22T03:35:16.256Z,1.77
2022-09-22T03:37:42.759Z,1.80
2022-09-22T03:40:09.597Z,1.70
2022-09-22T03:42:36.139Z,1.55
2022-09-22T03:45:04.421Z,1.10
2022-09-22T03:47:31.526Z,1.27
2022-09-22T03:49:58.164Z,1.55
2022-09-22T03:52:24.706Z,1.10
2022-09-22T03:54:52.181Z,1.10
2022-09-22T03:57:18.668Z,1.05
2022-09-22T03:59:45.475Z,1.60
2022-09-22T04:02:13.002Z,1.42
2022-09-22T04:04:39.562Z,2.08
2022-09-22T04:07:07.371Z,1.60
2022-09-22T04:09:34.528Z,1.52
2022-09-22T04:12:01.140Z,1.30
2022-09-22T04:14:27.936Z,1.58
2022-09-22T04:16:54.596Z,1.35
2022-09-22T04:19:21.220Z,1.50
2022-09-22T04:21:47.670Z,1.40
2022-09-22T04:24:14.178Z,1.30
2022-09-22T04:26:51.792Z,1.50
2022-09-22T04:29:27.261Z,1.30
2022-09-22T04:31:53.765Z,1.50
2022-09-22T04:34:20.302Z,1.50
2022-09-22T04:36:46.764Z,1.90
2022-09-22T04:39:13.383Z,1.60
2022-09-22T04:41:39.941Z,1.40
2022-09-22T04:44:06.373Z,1.27
2022-09-22T04:46:33.157Z,1.40
2022-09-22T04:48:59.779Z,1.20
2022-09-22T04:51:26.347Z,1.40
2022-09-22T04:53:52.822Z,1.17
2022-09-22T04:56:19.570Z,1.83
2022-09-22T04:58:46.101Z,1.35
2022-09-22T05:01:12.809Z,1.30
2022-09-22T05:03:39.453Z,1.17
2022-09-22T05:06:06.774Z,1.42
2022-09-22T05:08:33.488Z,1.40
2022-09-22T05:10:59.975Z,1.13
2022-09-22T05:13:26.891Z,1.20
2022-09-22T05:15:53.482Z,1.42
2022-09-22T05:18:20.673Z,1.10
2022-09-22T05:20:47.553Z,1.10
2022-09-22T05:23:14.106Z,1.02
2022-09-22T05:25:41.693Z,1.88
2022-09-22T05:28:08.410Z,2.00
2022-09-22T05:30:34.892Z,2.50
2022-09-22T05:33:01.360Z,1.95
2022-09-22T05:35:27.832Z,1.50
2022-09-22T05:37:54.465Z,1.63
2022-09-22T05:40:24.004Z,1.55
2022-09-22T05:42:51.670Z,1.00
2022-09-22T05:45:19.594Z,1.50
2022-09-22T05:47:46.511Z,1.20
2022-09-22T05:50:14.822Z,1.67
2022-09-22T05:52:41.522Z,1.20
2022-09-22T05:55:09.109Z,1.30
2022-09-22T05:57:35.651Z,1.45
2022-09-22T06:00:03.017Z,1.25
2022-09-22T06:02:38.406Z,1.75
2022-09-22T06:05:05.133Z,1.60
2022-09-22T06:07:31.670Z,1.40
2022-09-22T06:09:58.169Z,1.88
2022-09-22T06:12:24.776Z,1.90
2022-09-22T06:14:51.254Z,1.52
2022-09-22T06:17:17.827Z,1.63
2022-09-22T06:19:46.156Z,1.90
2022-09-22T06:22:12.588Z,1.73
2022-09-22T06:24:39.025Z,1.40
2022-09-22T06:27:05.611Z,1.70
2022-09-22T06:29:32.089Z,1.42
2022-09-22T06:31:58.642Z,1.20
2022-09-22T06:34:27.128Z,1.15
2022-09-22T06:36:57.140Z,1.10
2022-09-22T06:39:23.736Z,1.40
2022-09-22T06:41:50.459Z,1.30
2022-09-22T06:44:16.949Z,1.40
2022-09-22T06:46:43.455Z,1.30
2022-09-22T06:49:09.964Z,1.38
2022-09-22T06:51:36.931Z,1.38
2022-09-22T06:54:05.856Z,1.00
2022-09-22T06:56:37.044Z,1.40
2022-09-22T06:59:12.177Z,1.35
2022-09-22T07:01:40.491Z,1.52
2022-09-22T07:04:08.116Z,1.20
2022-09-22T07:06:37.291Z,1.20
2022-09-22T07:09:05.394Z,0.90
2022-09-22T07:11:34.278Z,1.35
2022-09-22T07:14:04.135Z,1.10
2022-09-22T07:16:30.697Z,1.17
2022-09-22T07:18:58.453Z,1.50
2022-09-22T07:21:36.252Z,1.60
2022-09-22T07:24:04.287Z,1.35
2022-09-22T07:26:33.726Z,1.20
2022-09-22T07:29:02.803Z,1.30
2022-09-22T07:31:31.911Z,1.10
2022-09-22T07:34:01.646Z,0.98
2022-09-22T07:36:30.808Z,1.00
2022-09-22T07:39:02.938Z,0.95
2022-09-22T07:41:31.652Z,1.60
2022-09-22T07:44:22.736Z,2.13
2022-09-22T07:46:49.348Z,2.15
2022-09-22T07:49:17.576Z,2.10
2022-09-22T07:51:44.083Z,1.98
2022-09-22T07:54:10.830Z,1.90
2022-09-22T07:56:43.486Z,1.90
2022-09-22T07:59:12.499Z,1.40
2022-09-22T08:01:44.640Z,1.10
2022-09-22T08:04:16.461Z,1.20
2022-09-22T08:06:44.368Z,2.20
2022-09-22T08:09:11.797Z,2.90
2022-09-22T08:11:38.804Z,2.40
2022-09-22T08:14:08.347Z,2.00
2022-09-22T08:16:36.568Z,1.98
2022-09-22T08:19:10.566Z,1.77
2022-09-22T08:21:46.433Z,1.77
2022-09-22T08:24:16.341Z,2.38
2022-09-22T08:26:48.082Z,1.65
2022-09-22T08:29:14.949Z,1.90
2022-09-22T08:31:42.328Z,1.80
2022-09-22T08:34:09.688Z,1.55
2022-09-22T08:36:37.500Z,2.00
2022-09-22T08:39:05.099Z,1.70
2022-09-22T08:41:44.003Z,1.85
2022-09-22T08:44:10.701Z,2.05
2022-09-22T08:46:41.122Z,1.88
2022-09-22T08:49:50.740Z,1.80
2022-09-22T08:52:35.374Z,1.52
2022-09-22T08:55:03.350Z,1.30
2022-09-22T08:57:47.461Z,1.17
2022-09-22T09:00:17.296Z,1.65
2022-09-22T09:03:08.506Z,1.30
2022-09-22T09:05:55.765Z,1.20
2022-09-22T09:08:50.535Z,1.10
2022-09-22T09:11:36.048Z,1.33
2022-09-22T09:14:02.682Z,1.08
2022-09-22T09:16:38.702Z,1.02
2022-09-22T09:19:14.468Z,1.00
2022-09-22T09:21:47.289Z,1.00
2022-09-22T09:27:40.235Z,1.00
2022-09-22T09:30:21.199Z,0.90
2022-09-22T09:32:56.337Z,1.13
2022-09-22T09:35:45.211Z,0.90
2022-09-22T09:38:15.426Z,0.90
2022-09-22T09:40:44.589Z,1.27
2022-09-22T09:43:12.015Z,0.98
2022-09-22T09:46:12.906Z,1.10
2022-09-22T09:49:05.460Z,1.17
2022-09-22T09:51:39.677Z,0.93
2022-09-22T09:54:11.894Z,0.80
2022-09-22T09:57:08.044Z,0.90
2022-09-22T09:59:55.101Z,0.90
2022-09-22T10:02:27.311Z,0.98
2022-09-22T10:05:05.063Z,0.80
2022-09-22T10:07:41.772Z,0.90
2022-09-22T10:10:23.614Z,0.80
2022-09-22T10:12:50.139Z,0.82
2022-09-22T10:15:25.416Z,0.73
2022-09-22T10:17:52.267Z,0.80
2022-09-22T10:20:28.183Z,0.77
2022-09-22T10:22:56.247Z,0.93
2022-09-22T10:25:31.979Z,0.80
2022-09-22T10:28:05.011Z,0.70
2022-09-22T10:30:36.929Z,0.80
2022-09-22T10:33:20.388Z,0.82
2022-09-22T10:36:07.737Z,0.90
2022-09-22T10:38:42.947Z,0.70
2022-09-22T10:41:14.866Z,0.88
2022-09-22T10:43:50.189Z,0.77
2022-09-22T10:46:32.526Z,0.85
2022-09-22T10:49:23.793Z,0.50
2022-09-22T10:52:04.138Z,0.50
2022-09-22T10:54:43.323Z,0.60
2022-09-22T10:57:38.835Z,0.60
2022-09-22T11:00:17.202Z,0.68
2022-09-22T11:02:57.277Z,0.63
2022-09-22T11:06:10.623Z,0.65
2022-09-22T11:09:19.521Z,0.63
2022-09-22T11:12:16.517Z,0.52
2022-09-22T11:15:02.185Z,0.68
2022-09-22T11:17:53.672Z,0.60
2022-09-22T11:20:38.228Z,0.70
2022-09-22T11:23:22.372Z,0.70
2022-09-22T11:26:13.949Z,0.90
2022-09-22T11:28:54.906Z,0.65
2022-09-22T11:31:59.559Z,0.93
2022-09-22T11:34:58.007Z,0.68
2022-09-22T11:38:22.409Z,0.50
2022-09-22T11:41:03.012Z,0.45
2022-09-22T11:43:58.502Z,0.73
2022-09-22T11:47:03.360Z,0.68
2022-09-22T11:50:00.861Z,0.80
2022-09-22T11:52:58.422Z,0.60
2022-09-22T11:55:46.910Z,0.77
2022-09-22T11:58:21.395Z,0.70
2022-09-22T12:00:56.586Z,0.80
2022-09-22T12:03:33.093Z,0.80
2022-09-22T12:06:05.847Z,0.73
2022-09-22T12:08:38.849Z,0.98
2022-09-22T12:11:07.935Z,0.82
2022-09-22T12:13:37.274Z,0.82
2022-09-22T12:16:07.280Z,0.70
2022-09-22T12:19:00.235Z,0.70
2022-09-22T12:21:50.301Z,0.90
2022-09-22T12:24:16.896Z,0.70
2022-09-22T12:26:47.080Z,0.80
2022-09-22T12:29:13.767Z,0.70
2022-09-22T12:31:43.743Z,0.77
2022-09-22T12:34:23.358Z,0.60
2022-09-22T12:36:55.231Z,1.10
2022-09-22T12:39:29.242Z,1.00
2022-09-22T12:42:01.587Z,0.73
2022-09-22T12:44:51.464Z,1.00
2022-09-22T12:47:28.974Z,1.02
2022-09-22T12:50:00.899Z,0.90
2022-09-22T12:52:39.637Z,0.90
2022-09-22T12:55:38.553Z,0.60
2022-09-22T12:58:28.321Z,0.80
2022-09-22T13:01:14.614Z,1.20
2022-09-22T13:03:49.138Z,0.73
2022-09-22T13:06:21.965Z,0.73
2022-09-22T13:08:48.525Z,0.80
2022-09-22T13:11:15.392Z,0.95
2022-09-22T13:13:47.229Z,0.90
2022-09-22T13:16:25.752Z,0.80
2022-09-22T13:18:52.845Z,0.80
2022-09-22T13:21:28.009Z,0.90
2022-09-22T13:23:55.400Z,0.65
2022-09-22T13:26:34.473Z,0.68
2022-09-22T13:29:12.723Z,0.60
2022-09-22T13:31:48.485Z,0.90
2022-09-22T13:34:33.296Z,0.75
2022-09-22T13:37:04.435Z,0.80
2022-09-22T13:39:35.129Z,0.82
2022-09-22T13:42:14.402Z,0.52
2022-09-22T13:44:45.489Z,0.85
2022-09-22T13:47:20.112Z,0.80
2022-09-22T13:49:53.134Z,1.05
2022-09-22T13:52:24.734Z,0.65
2022-09-22T13:54:57.705Z,0.80
2022-09-22T13:57:31.699Z,0.60
2022-09-22T14:00:00.240Z,0.80
2022-09-22T14:02:31.869Z,0.80
2022-09-22T14:05:18.046Z,0.77
2022-09-22T14:08:07.650Z,0.65
2022-09-22T14:10:32.712Z,0.60
2022-09-22T14:12:59.308Z,0.80
2022-09-22T14:15:36.140Z,0.70
2022-09-22T14:18:09.926Z,0.70
2022-09-22T14:20:43.421Z,0.70
2022-09-22T14:26:02.205Z,0.70
2022-09-22T14:28:36.771Z,1.13
2022-09-22T14:31:14.339Z,0.80
2022-09-22T14:33:44.910Z,0.60
2022-09-22T14:36:17.267Z,0.60
2022-09-22T14:38:50.057Z,0.70
2022-09-22T14:41:27.588Z,0.60
2022-09-22T14:43:55.139Z,0.55
2022-09-22T14:46:33.660Z,0.85
2022-09-22T14:49:40.617Z,0.65
2022-09-22T14:52:32.951Z,0.90
2022-09-22T14:55:10.206Z,0.70
2022-09-22T14:57:36.789Z,0.82
2022-09-22T15:00:22.813Z,0.80
2022-09-22T15:02:53.910Z,0.82
2022-09-22T15:05:30.379Z,0.80
2022-09-22T15:07:58.356Z,0.80
2022-09-22T15:10:27.852Z,0.98
2022-09-22T15:12:56.789Z,0.90
2022-09-22T15:15:26.694Z,0.80
2022-09-22T15:18:16.086Z,0.60
2022-09-22T15:20:50.943Z,2.10
2022-09-22T15:23:21.485Z,1.80
2022-09-22T15:25:49.024Z,1.13
2022-09-22T15:28:18.228Z,0.60
2022-09-22T15:30:47.485Z,0.73
2022-09-22T15:33:15.710Z,0.70
2022-09-22T15:35:44.718Z,0.60
2022-09-22T15:38:27.543Z,0.70
2022-09-22T15:40:54.115Z,0.60
2022-09-22T15:43:23.397Z,0.70
2022-09-22T15:45:53.893Z,0.57
2022-09-22T15:48:27.022Z,0.90
2022-09-22T15:50:55.337Z,0.70
2022-09-22T15:53:23.109Z,0.60
2022-09-22T15:55:54.493Z,0.60
2022-09-22T15:58:23.222Z,0.60
2022-09-22T16:00:53.309Z,0.70
2022-09-22T16:03:23.442Z,0.80
2022-09-22T16:05:56.616Z,0.63
2022-09-22T16:08:31.329Z,0.70
2022-09-22T16:11:05.530Z,0.65
2022-09-22T16:13:33.307Z,0.68
2022-09-22T16:16:05.467Z,0.70
2022-09-22T16:18:33.072Z,0.70
2022-09-22T16:21:06.732Z,0.70
2022-09-22T16:23:33.512Z,0.68
2022-09-22T16:26:00.104Z,0.60
2022-09-22T16:28:26.766Z,0.60
2022-09-22T16:30:53.285Z,0.93
2022-09-22T16:33:19.763Z,0.80
2022-09-22T16:35:46.318Z,0.73
2022-09-22T16:38:12.910Z,0.80
2022-09-22T16:40:39.737Z,0.95
2022-09-22T16:43:08.741Z,0.70
2022-09-22T16:45:54.157Z,0.70
2022-09-22T16:48:20.716Z,0.70
2022-09-22T16:50:47.227Z,0.70
2022-09-22T16:53:14.218Z,0.70
2022-09-22T16:55:48.220Z,0.65
2022-09-22T16:58:14.746Z,0.63
2022-09-22T17:00:41.249Z,0.95
2022-09-22T17:03:08.290Z,0.90
2022-09-22T17:05:35.272Z,0.93
2022-09-22T17:08:06.523Z,0.82
2022-09-22T17:10:35.813Z,1.23
2022-09-22T17:13:04.707Z,1.17
2022-09-22T17:15:35.890Z,1.13
2022-09-22T17:18:03.896Z,1.33
2022-09-22T17:20:30.587Z,1.00
2022-09-22T17:22:57.801Z,1.40
2022-09-22T17:25:29.137Z,1.20
2022-09-22T17:27:56.350Z,1.77
2022-09-22T17:30:22.867Z,1.73
2022-09-22T17:32:49.539Z,1.15
2022-09-22T17:35:16.067Z,1.20
2022-09-22T17:37:42.525Z,1.20
2022-09-22T17:40:11.259Z,1.17
2022-09-22T17:42:38.146Z,1.10
2022-09-22T17:45:07.253Z,1.10
2022-09-22T17:47:52.341Z,1.27
2022-09-22T17:50:37.315Z,1.50
2022-09-22T17:53:22.377Z,1.10
2022-09-22T17:55:49.099Z,1.00
2022-09-22T17:58:15.525Z,1.15
2022-09-22T18:00:42.181Z,0.73
2022-09-22T18:03:09.416Z,0.88
2022-09-22T18:05:38.739Z,1.60
2022-09-22T18:08:05.239Z,1.92
2022-09-22T18:10:34.539Z,1.60
2022-09-22T18:13:01.601Z,1.13
2022-09-22T18:15:29.090Z,0.90
2022-09-22T18:17:57.978Z,2.90
2022-09-22T18:20:26.077Z,2.70
2022-09-22T18:22:53.006Z,2.30
2022-09-22T18:25:23.012Z,2.25
2022-09-22T18:27:49.929Z,1.42
2022-09-22T18:30:19.257Z,2.10
2022-09-22T18:32:47.373Z,2.58
2022-09-22T18:35:14.299Z,2.15
2022-09-22T18:37:41.116Z,2.20
2022-09-22T18:40:09.042Z,1.83
2022-09-22T18:42:36.596Z,1.50
2022-09-22T18:45:03.745Z,1.52
2022-09-22T18:47:30.213Z,1.90
2022-09-22T18:49:56.893Z,2.03
2022-09-22T18:52:24.298Z,1.65
2022-09-22T18:54:53.745Z,2.13
2022-09-22T18:57:22.236Z,2.33
2022-09-22T18:59:50.755Z,2.10
2022-09-22T19:02:19.317Z,2.00
2022-09-22T19:04:45.905Z,1.92
2022-09-22T19:07:31.157Z,1.50
2022-09-22T19:09:57.592Z,1.30
2022-09-22T19:12:24.071Z,1.60
2022-09-22T19:14:54.414Z,1.98
2022-09-22T19:17:20.920Z,2.20
2022-09-22T19:19:48.957Z,1.88
2022-09-22T19:22:15.880Z,1.90
2022-09-22T19:24:44.728Z,1.75
2022-09-22T19:27:13.076Z,1.60
2022-09-22T19:29:39.508Z,1.83
2022-09-22T19:32:06.203Z,1.40
2022-09-22T19:34:33.182Z,1.40
2022-09-22T19:37:00.004Z,1.40
2022-09-22T19:39:26.903Z,1.50
2022-09-22T19:41:54.778Z,1.63
2022-09-22T19:44:22.478Z,1.48
2022-09-22T19:46:50.053Z,2.10
2022-09-22T19:49:17.202Z,2.03
2022-09-22T19:51:43.993Z,1.83
2022-09-22T19:54:10.873Z,2.33
2022-09-22T19:56:37.608Z,1.92
2022-09-22T19:59:07.099Z,2.25
2022-09-22T20:01:39.369Z,1.75
2022-09-22T20:04:07.116Z,2.08
2022-09-22T20:06:34.419Z,1.77
2022-09-22T20:09:03.754Z,1.40
2022-09-22T20:11:38.396Z,1.85
2022-09-22T20:14:22.182Z,1.90
2022-09-22T20:17:04.059Z,1.55
2022-09-22T20:19:32.791Z,2.55
2022-09-22T20:22:25.347Z,2.40
2022-09-22T20:24:57.225Z,2.80
2022-09-22T20:27:29.567Z,2.90
2022-09-22T20:29:57.665Z,2.35
2022-09-22T20:32:31.451Z,2.58
2022-09-22T20:34:57.887Z,2.42
2022-09-22T20:37:24.952Z,2.17
2022-09-22T20:39:51.734Z,2.20
2022-09-22T20:42:18.202Z,2.00
2022-09-22T20:44:45.127Z,2.00
2022-09-22T20:47:19.236Z,2.22
2022-09-22T20:49:51.284Z,1.85
2022-09-22T20:52:19.919Z,2.35
2022-09-22T20:54:46.689Z,2.10
2022-09-22T20:57:14.031Z,2.22
2022-09-22T20:59:40.703Z,2.17
2022-09-22T21:02:07.263Z,1.40
2022-09-22T21:04:33.866Z,1.60
2022-09-22T21:07:01.397Z,1.70
2022-09-22T21:09:46.584Z,2.63
2022-09-22T21:12:13.557Z,2.22
2022-09-22T21:14:45.935Z,2.63
2022-09-22T21:17:13.595Z,2.40
2022-09-22T21:19:40.411Z,1.90
2022-09-22T21:22:06.901Z,2.30
2022-09-22T21:24:34.070Z,2.10
2022-09-22T21:27:00.579Z,2.10
2022-09-22T21:29:28.659Z,1.80
2022-09-22T21:31:56.618Z,2.20
2022-09-22T21:34:23.999Z,1.42
2022-09-22T21:36:51.318Z,1.35
2022-09-22T21:39:18.076Z,1.20
2022-09-22T21:41:44.779Z,1.40
2022-09-22T21:44:11.284Z,1.95
2022-09-22T21:46:40.742Z,1.60
2022-09-22T21:49:08.901Z,1.45
2022-09-22T21:51:41.184Z,1.50
2022-09-22T21:54:12.820Z,1.70
2022-09-22T21:56:39.395Z,1.40
2022-09-22T21:59:05.888Z,1.10
2022-09-22T22:01:36.064Z,1.00
2022-09-22T22:04:07.900Z,0.98
2022-09-22T22:06:37.890Z,1.10
2022-09-22T22:09:07.042Z,1.60
2022-09-22T22:11:39.401Z,1.75
2022-09-22T22:14:08.302Z,1.70
2022-09-22T22:16:40.457Z,1.27
2022-09-22T22:19:09.532Z,1.70
2022-09-22T22:21:36.644Z,1.50
2022-09-22T22:24:23.183Z,1.30
2022-09-22T22:26:52.590Z,1.90
2022-09-22T22:29:20.893Z,1.52
2022-09-22T22:31:51.548Z,1.50
2022-09-22T22:34:20.836Z,1.20
2022-09-22T22:36:48.691Z,1.10
2022-09-22T22:39:15.328Z,1.10
2022-09-22T22:41:41.874Z,1.60
2022-09-22T22:44:08.551Z,1.48
2022-09-22T22:46:36.082Z,1.05
2022-09-22T22:49:03.310Z,1.20
2022-09-22T22:51:29.987Z,1.58
2022-09-22T22:53:56.754Z,1.42
2022-09-22T22:56:25.449Z,1.30
2022-09-22T22:58:53.202Z,1.73
2022-09-22T23:01:23.611Z,1.67
2022-09-22T23:03:52.899Z,1.98
2022-09-22T23:06:43.647Z,2.00
2022-09-22T23:09:13.997Z,1.60
2022-09-22T23:11:41.551Z,1.67
2022-09-22T23:14:11.383Z,1.85
2022-09-22T23:16:43.468Z,1.60
2022-09-22T23:19:12.676Z,1.70
2022-09-22T23:21:39.172Z,1.70
2022-09-22T23:24:06.118Z,1.55
2022-09-22T23:26:33.046Z,1.40
2022-09-22T23:28:59.944Z,1.80
2022-09-22T23:31:26.890Z,1.70
2022-09-22T23:33:54.144Z,1.50
2022-09-22T23:36:24.121Z,1.60
2022-09-22T23:39:03.990Z,1.10
2022-09-22T23:41:32.987Z,1.17
2022-09-22T23:43:59.552Z,1.20
2022-09-22T23:46:26.141Z,1.13
2022-09-22T23:48:52.685Z,1.10
2022-09-22T23:51:19.571Z,1.17
2022-09-22T23:53:46.228Z,0.95
2022-09-22T23:56:13.996Z,1.10
2022-09-22T23:58:40.549Z,1.10
